sensor_id;sensor_type;location;lat;lon;timestamp;pressure;altitude;pressure_sealevel;temperature;humidity
20624;BME280;10471;42.736;23.346;2022-07-17T00:00:25;95897.09;;;20.60;92.29
20624;BME280;10471;42.736;23.346;2022-07-17T00:02:51;95897.97;;;20.52;93.38
20624;BME280;10471;42.736;23.346;2022-07-17T00:05:16;95896.53;;;20.55;93.07
20624;BME280;10471;42.736;23.346;2022-07-17T00:07:42;95900.03;;;20.47;93.35
20624;BME280;10471;42.736;23.346;2022-07-17T00:10:08;95903.03;;;20.45;93.28
20624;BME280;10471;42.736;23.346;2022-07-17T00:12:33;95901.13;;;20.46;93.37
20624;BME280;10471;42.736;23.346;2022-07-17T00:14:59;95908.97;;;20.51;93.14
20624;BME280;10471;42.736;23.346;2022-07-17T00:17:24;95909.97;;;20.46;93.07
20624;BME280;10471;42.736;23.346;2022-07-17T00:19:49;95911.84;;;20.46;93.30
20624;BME280;10471;42.736;23.346;2022-07-17T00:22:15;95910.88;;;20.50;93.09
20624;BME280;10471;42.736;23.346;2022-07-17T00:24:40;95911.97;;;20.49;92.73
20624;BME280;10471;42.736;23.346;2022-07-17T00:27:05;95916.09;;;20.47;93.06
20624;BME280;10471;42.736;23.346;2022-07-17T00:29:31;95918.78;;;20.47;93.50
20624;BME280;10471;42.736;23.346;2022-07-17T00:31:57;95910.47;;;20.40;93.57
20624;BME280;10471;42.736;23.346;2022-07-17T00:34:22;95912.97;;;20.45;93.73
20624;BME280;10471;42.736;23.346;2022-07-17T00:36:47;95919.88;;;20.46;93.51
20624;BME280;10471;42.736;23.346;2022-07-17T00:39:13;95915.47;;;20.50;93.14
20624;BME280;10471;42.736;23.346;2022-07-17T00:41:39;95918.59;;;20.52;92.62
20624;BME280;10471;42.736;23.346;2022-07-17T00:44:13;95925.53;;;20.53;92.86
20624;BME280;10471;42.736;23.346;2022-07-17T00:46:39;95921.06;;;20.57;91.65
20624;BME280;10471;42.736;23.346;2022-07-17T00:49:06;95932.59;;;20.57;92.01
20624;BME280;10471;42.736;23.346;2022-07-17T00:51:32;95931.03;;;20.56;91.69
20624;BME280;10471;42.736;23.346;2022-07-17T00:53:58;95924.22;;;20.59;92.20
20624;BME280;10471;42.736;23.346;2022-07-17T00:56:24;95931.78;;;20.57;92.68
20624;BME280;10471;42.736;23.346;2022-07-17T00:58:50;95937.47;;;20.55;93.58
20624;BME280;10471;42.736;23.346;2022-07-17T01:01:16;95933.75;;;20.48;93.67
20624;BME280;10471;42.736;23.346;2022-07-17T01:03:41;95937.53;;;20.47;93.47
20624;BME280;10471;42.736;23.346;2022-07-17T01:06:07;95939.44;;;20.46;93.68
20624;BME280;10471;42.736;23.346;2022-07-17T01:08:33;95944.03;;;20.38;93.69
20624;BME280;10471;42.736;23.346;2022-07-17T01:10:58;95942.91;;;20.39;94.94
20624;BME280;10471;42.736;23.346;2022-07-17T01:13:25;95939.75;;;20.45;94.21
20624;BME280;10471;42.736;23.346;2022-07-17T01:15:51;95942.72;;;20.43;93.49
20624;BME280;10471;42.736;23.346;2022-07-17T01:18:16;95941.19;;;20.42;93.88
20624;BME280;10471;42.736;23.346;2022-07-17T01:20:46;95943.53;;;20.44;93.56
20624;BME280;10471;42.736;23.346;2022-07-17T01:23:14;95947.31;;;20.43;93.21
20624;BME280;10471;42.736;23.346;2022-07-17T01:25:39;95942.88;;;20.47;94.60
20624;BME280;10471;42.736;23.346;2022-07-17T01:28:05;95932.34;;;20.42;96.02
20624;BME280;10471;42.736;23.346;2022-07-17T01:30:31;95932.22;;;20.30;97.00
20624;BME280;10471;42.736;23.346;2022-07-17T01:32:57;95933.38;;;20.29;97.33
20624;BME280;10471;42.736;23.346;2022-07-17T01:35:23;95927.91;;;20.17;98.79
20624;BME280;10471;42.736;23.346;2022-07-17T01:37:48;95930.44;;;20.05;100.00
20624;BME280;10471;42.736;23.346;2022-07-17T01:40:15;95935.81;;;20.05;100.00
20624;BME280;10471;42.736;23.346;2022-07-17T01:42:43;95941.00;;;20.02;100.00
20624;BME280;10471;42.736;23.346;2022-07-17T01:45:09;95943.56;;;19.98;100.00
20624;BME280;10471;42.736;23.346;2022-07-17T01:47:34;95941.66;;;19.90;100.00
20624;BME280;10471;42.736;23.346;2022-07-17T01:50:00;95932.84;;;19.90;100.00
20624;BME280;10471;42.736;23.346;2022-07-17T01:52:27;95937.25;;;19.86;100.00
20624;BME280;10471;42.736;23.346;2022-07-17T01:54:53;95942.47;;;19.82;100.00
20624;BME280;10471;42.736;23.346;2022-07-17T01:57:19;95952.22;;;19.78;100.00
20624;BME280;10471;42.736;23.346;2022-07-17T01:59:44;95945.94;;;19.74;100.00
20624;BME280;10471;42.736;23.346;2022-07-17T02:02:10;95946.56;;;19.72;100.00
20624;BME280;10471;42.736;23.346;2022-07-17T02:04:37;95946.75;;;19.67;100.00
20624;BME280;10471;42.736;23.346;2022-07-17T02:07:04;95949.09;;;19.60;100.00
20624;BME280;10471;42.736;23.346;2022-07-17T02:09:29;95950.38;;;19.54;100.00
20624;BME280;10471;42.736;23.346;2022-07-17T02:11:55;95944.72;;;19.47;100.00
20624;BME280;10471;42.736;23.346;2022-07-17T02:14:21;95941.25;;;19.38;100.00
20624;BME280;10471;42.736;23.346;2022-07-17T02:16:47;95940.16;;;19.30;100.00
20624;BME280;10471;42.736;23.346;2022-07-17T02:19:12;95938.28;;;19.22;100.00
20624;BME280;10471;42.736;23.346;2022-07-17T02:21:38;95944.09;;;19.16;100.00
20624;BME280;10471;42.736;23.346;2022-07-17T02:24:03;95942.69;;;19.10;100.00
20624;BME280;10471;42.736;23.346;2022-07-17T02:26:29;95942.00;;;19.05;100.00
20624;BME280;10471;42.736;23.346;2022-07-17T02:28:54;95946.25;;;18.97;100.00
20624;BME280;10471;42.736;23.346;2022-07-17T02:31:20;95944.81;;;18.91;100.00
20624;BME280;10471;42.736;23.346;2022-07-17T02:33:45;95947.31;;;18.71;100.00
20624;BME280;10471;42.736;23.346;2022-07-17T02:36:11;95950.63;;;18.76;100.00
20624;BME280;10471;42.736;23.346;2022-07-17T02:38:36;95945.78;;;18.78;100.00
20624;BME280;10471;42.736;23.346;2022-07-17T02:41:01;95952.66;;;18.71;100.00
20624;BME280;10471;42.736;23.346;2022-07-17T02:43:27;95946.22;;;18.72;100.00
20624;BME280;10471;42.736;23.346;2022-07-17T02:45:52;95952.53;;;18.76;100.00
20624;BME280;10471;42.736;23.346;2022-07-17T02:48:18;95958.63;;;18.76;100.00
20624;BME280;10471;42.736;23.346;2022-07-17T02:50:43;95962.75;;;18.82;100.00
20624;BME280;10471;42.736;23.346;2022-07-17T02:53:09;95955.66;;;18.86;100.00
20624;BME280;10471;42.736;23.346;2022-07-17T02:55:34;95960.09;;;18.91;100.00
20624;BME280;10471;42.736;23.346;2022-07-17T02:58:00;95968.28;;;18.94;100.00
20624;BME280;10471;42.736;23.346;2022-07-17T03:00:25;95962.91;;;18.94;100.00
20624;BME280;10471;42.736;23.346;2022-07-17T03:02:52;95966.19;;;18.91;100.00
20624;BME280;10471;42.736;23.346;2022-07-17T03:05:17;95974.84;;;18.88;100.00
20624;BME280;10471;42.736;23.346;2022-07-17T03:07:43;95968.88;;;18.91;100.00
20624;BME280;10471;42.736;23.346;2022-07-17T03:10:12;95971.09;;;18.89;100.00
20624;BME280;10471;42.736;23.346;2022-07-17T03:12:37;95967.00;;;18.83;100.00
20624;BME280;10471;42.736;23.346;2022-07-17T03:15:04;95974.53;;;18.90;100.00
20624;BME280;10471;42.736;23.346;2022-07-17T03:17:30;95979.56;;;18.91;100.00
20624;BME280;10471;42.736;23.346;2022-07-17T03:19:56;95985.88;;;18.95;100.00
20624;BME280;10471;42.736;23.346;2022-07-17T03:22:21;95984.13;;;18.91;100.00
20624;BME280;10471;42.736;23.346;2022-07-17T03:24:47;95982.56;;;18.98;100.00
20624;BME280;10471;42.736;23.346;2022-07-17T03:27:12;95985.09;;;19.03;100.00
20624;BME280;10471;42.736;23.346;2022-07-17T03:29:38;95991.41;;;19.07;99.55
20624;BME280;10471;42.736;23.346;2022-07-17T03:32:03;95988.13;;;19.10;99.38
20624;BME280;10471;42.736;23.346;2022-07-17T03:34:29;95999.13;;;19.17;98.73
20624;BME280;10471;42.736;23.346;2022-07-17T03:36:54;96007.47;;;19.15;99.74
20624;BME280;10471;42.736;23.346;2022-07-17T03:39:20;96008.22;;;19.16;99.87
20624;BME280;10471;42.736;23.346;2022-07-17T03:41:45;96007.72;;;19.06;100.00
20624;BME280;10471;42.736;23.346;2022-07-17T03:44:11;96006.53;;;19.11;99.87
20624;BME280;10471;42.736;23.346;2022-07-17T03:46:36;96006.69;;;19.15;100.00
20624;BME280;10471;42.736;23.346;2022-07-17T03:49:02;96013.13;;;19.22;98.73
20624;BME280;10471;42.736;23.346;2022-07-17T03:51:27;96011.72;;;19.25;99.52
20624;BME280;10471;42.736;23.346;2022-07-17T03:53:53;96013.31;;;19.26;100.00
20624;BME280;10471;42.736;23.346;2022-07-17T03:56:18;96021.16;;;19.31;100.00
20624;BME280;10471;42.736;23.346;2022-07-17T03:58:44;96021.78;;;19.28;100.00
20624;BME280;10471;42.736;23.346;2022-07-17T04:01:09;96031.06;;;19.30;99.96
20624;BME280;10471;42.736;23.346;2022-07-17T04:03:35;96030.13;;;19.35;99.58
20624;BME280;10471;42.736;23.346;2022-07-17T04:06:00;96027.16;;;19.45;98.96
20624;BME280;10471;42.736;23.346;2022-07-17T04:08:26;96035.00;;;19.50;98.18
20624;BME280;10471;42.736;23.346;2022-07-17T04:10:51;96030.94;;;19.61;98.43
20624;BME280;10471;42.736;23.346;2022-07-17T04:13:17;96035.78;;;19.67;97.52
20624;BME280;10471;42.736;23.346;2022-07-17T04:15:43;96042.09;;;19.71;96.86
20624;BME280;10471;42.736;23.346;2022-07-17T04:18:15;96040.66;;;19.73;96.00
20624;BME280;10471;42.736;23.346;2022-07-17T04:20:40;96047.13;;;19.81;96.61
20624;BME280;10471;42.736;23.346;2022-07-17T04:23:06;96041.31;;;19.87;93.69
20624;BME280;10471;42.736;23.346;2022-07-17T04:25:31;96047.59;;;19.91;90.93
20624;BME280;10471;42.736;23.346;2022-07-17T04:27:56;96043.19;;;19.95;89.72
20624;BME280;10471;42.736;23.346;2022-07-17T04:30:22;96046.66;;;20.04;91.65
20624;BME280;10471;42.736;23.346;2022-07-17T04:32:47;96045.38;;;20.10;89.76
20624;BME280;10471;42.736;23.346;2022-07-17T04:35:13;96050.41;;;20.20;89.10
20624;BME280;10471;42.736;23.346;2022-07-17T04:37:38;96054.78;;;20.33;87.16
20624;BME280;10471;42.736;23.346;2022-07-17T04:40:05;96055.88;;;20.41;87.27
20624;BME280;10471;42.736;23.346;2022-07-17T04:42:31;96055.53;;;20.42;83.89
20624;BME280;10471;42.736;23.346;2022-07-17T04:44:56;96057.88;;;20.52;86.02
20624;BME280;10471;42.736;23.346;2022-07-17T04:47:22;96066.69;;;20.61;84.20
20624;BME280;10471;42.736;23.346;2022-07-17T04:49:47;96058.75;;;20.73;80.23
20624;BME280;10471;42.736;23.346;2022-07-17T04:52:12;96076.72;;;20.81;80.89
20624;BME280;10471;42.736;23.346;2022-07-17T04:54:38;96075.88;;;20.97;76.61
20624;BME280;10471;42.736;23.346;2022-07-17T04:57:03;96070.34;;;20.94;76.67
20624;BME280;10471;42.736;23.346;2022-07-17T04:59:29;96088.75;;;21.04;77.63
20624;BME280;10471;42.736;23.346;2022-07-17T05:01:54;96081.28;;;21.17;75.50
20624;BME280;10471;42.736;23.346;2022-07-17T05:04:19;96080.78;;;21.24;74.90
20624;BME280;10471;42.736;23.346;2022-07-17T05:06:46;96085.91;;;21.37;74.99
20624;BME280;10471;42.736;23.346;2022-07-17T05:09:11;96080.78;;;21.44;74.93
20624;BME280;10471;42.736;23.346;2022-07-17T05:11:36;96080.63;;;21.49;75.78
20624;BME280;10471;42.736;23.346;2022-07-17T05:14:02;96090.41;;;21.54;73.59
20624;BME280;10471;42.736;23.346;2022-07-17T05:16:27;96077.78;;;21.54;71.45
20624;BME280;10471;42.736;23.346;2022-07-17T05:18:53;96078.22;;;21.56;70.60
20624;BME280;10471;42.736;23.346;2022-07-17T05:21:18;96081.44;;;21.70;70.35
20624;BME280;10471;42.736;23.346;2022-07-17T05:23:44;96076.81;;;21.79;69.84
20624;BME280;10471;42.736;23.346;2022-07-17T05:26:09;96076.84;;;21.91;69.30
20624;BME280;10471;42.736;23.346;2022-07-17T05:28:35;96086.75;;;21.99;69.14
20624;BME280;10471;42.736;23.346;2022-07-17T05:31:00;96087.66;;;22.03;65.48
20624;BME280;10471;42.736;23.346;2022-07-17T05:33:27;96081.88;;;22.13;67.06
20624;BME280;10471;42.736;23.346;2022-07-17T05:35:52;96077.41;;;22.17;66.02
20624;BME280;10471;42.736;23.346;2022-07-17T05:38:18;96073.75;;;22.21;64.22
20624;BME280;10471;42.736;23.346;2022-07-17T05:40:43;96081.66;;;22.38;63.52
20624;BME280;10471;42.736;23.346;2022-07-17T05:43:09;96085.50;;;22.49;64.49
20624;BME280;10471;42.736;23.346;2022-07-17T05:45:34;96090.25;;;22.64;61.40
20624;BME280;10471;42.736;23.346;2022-07-17T05:47:59;96087.81;;;22.71;62.58
20624;BME280;10471;42.736;23.346;2022-07-17T05:50:25;96085.00;;;22.79;58.39
20624;BME280;10471;42.736;23.346;2022-07-17T05:52:50;96082.34;;;22.91;57.54
20624;BME280;10471;42.736;23.346;2022-07-17T05:55:16;96090.84;;;22.93;56.32
20624;BME280;10471;42.736;23.346;2022-07-17T05:57:41;96088.19;;;23.05;55.53
20624;BME280;10471;42.736;23.346;2022-07-17T06:00:07;96081.72;;;23.18;55.21
20624;BME280;10471;42.736;23.346;2022-07-17T06:02:33;96094.47;;;23.33;55.33
20624;BME280;10471;42.736;23.346;2022-07-17T06:04:59;96089.44;;;23.43;53.99
20624;BME280;10471;42.736;23.346;2022-07-17T06:07:24;96091.44;;;23.58;53.72
20624;BME280;10471;42.736;23.346;2022-07-17T06:09:49;96094.56;;;23.60;53.68
20624;BME280;10471;42.736;23.346;2022-07-17T06:12:15;96093.31;;;23.70;51.71
20624;BME280;10471;42.736;23.346;2022-07-17T06:14:40;96086.59;;;23.76;52.66
20624;BME280;10471;42.736;23.346;2022-07-17T06:17:06;96096.22;;;23.88;54.06
20624;BME280;10471;42.736;23.346;2022-07-17T06:19:31;96092.72;;;24.00;51.74
20624;BME280;10471;42.736;23.346;2022-07-17T06:21:56;96092.13;;;24.06;52.42
20624;BME280;10471;42.736;23.346;2022-07-17T06:24:22;96087.13;;;24.20;52.92
20624;BME280;10471;42.736;23.346;2022-07-17T06:26:47;96095.53;;;24.31;51.07
20624;BME280;10471;42.736;23.346;2022-07-17T06:29:13;96099.09;;;24.35;49.82
20624;BME280;10471;42.736;23.346;2022-07-17T06:31:38;96092.22;;;24.37;51.64
20624;BME280;10471;42.736;23.346;2022-07-17T06:34:03;96095.59;;;24.46;51.74
20624;BME280;10471;42.736;23.346;2022-07-17T06:36:29;96093.59;;;24.43;50.25
20624;BME280;10471;42.736;23.346;2022-07-17T06:38:54;96091.09;;;24.38;51.16
20624;BME280;10471;42.736;23.346;2022-07-17T06:41:20;96098.13;;;24.54;51.94
20624;BME280;10471;42.736;23.346;2022-07-17T06:43:45;96098.56;;;24.56;50.68
20624;BME280;10471;42.736;23.346;2022-07-17T06:46:10;96092.94;;;24.61;50.03
20624;BME280;10471;42.736;23.346;2022-07-17T06:48:36;96101.28;;;24.72;50.91
20624;BME280;10471;42.736;23.346;2022-07-17T06:51:01;96093.03;;;24.65;51.12
20624;BME280;10471;42.736;23.346;2022-07-17T06:53:26;96102.84;;;24.73;48.92
20624;BME280;10471;42.736;23.346;2022-07-17T06:55:52;96095.03;;;24.68;49.42
20624;BME280;10471;42.736;23.346;2022-07-17T06:58:17;96101.63;;;24.70;50.92
20624;BME280;10471;42.736;23.346;2022-07-17T07:00:42;96100.97;;;24.73;48.65
20624;BME280;10471;42.736;23.346;2022-07-17T07:03:08;96103.13;;;24.68;50.16
20624;BME280;10471;42.736;23.346;2022-07-17T07:05:34;96103.97;;;24.72;50.01
20624;BME280;10471;42.736;23.346;2022-07-17T07:07:59;96105.28;;;24.78;48.78
20624;BME280;10471;42.736;23.346;2022-07-17T07:10:25;96112.88;;;24.88;49.91
20624;BME280;10471;42.736;23.346;2022-07-17T07:12:51;96111.25;;;24.83;49.70
20624;BME280;10471;42.736;23.346;2022-07-17T07:15:16;96112.97;;;24.91;50.00
20624;BME280;10471;42.736;23.346;2022-07-17T07:17:42;96114.81;;;25.03;51.68
20624;BME280;10471;42.736;23.346;2022-07-17T07:20:08;96111.53;;;25.09;48.28
20624;BME280;10471;42.736;23.346;2022-07-17T07:22:34;96113.00;;;25.22;51.08
20624;BME280;10471;42.736;23.346;2022-07-17T07:24:59;96109.97;;;25.23;47.84
20624;BME280;10471;42.736;23.346;2022-07-17T07:27:25;96111.00;;;25.34;47.84
20624;BME280;10471;42.736;23.346;2022-07-17T07:29:50;96104.19;;;25.40;47.88
20624;BME280;10471;42.736;23.346;2022-07-17T07:32:16;96110.41;;;25.41;48.25
20624;BME280;10471;42.736;23.346;2022-07-17T07:34:41;96118.16;;;25.42;47.95
20624;BME280;10471;42.736;23.346;2022-07-17T07:37:07;96113.53;;;25.43;48.32
20624;BME280;10471;42.736;23.346;2022-07-17T07:39:32;96113.16;;;25.44;48.24
20624;BME280;10471;42.736;23.346;2022-07-17T07:41:58;96110.53;;;25.63;49.00
20624;BME280;10471;42.736;23.346;2022-07-17T07:44:23;96110.94;;;25.65;47.43
20624;BME280;10471;42.736;23.346;2022-07-17T07:46:49;96105.47;;;25.62;47.66
20624;BME280;10471;42.736;23.346;2022-07-17T07:49:14;96107.19;;;25.70;47.92
20624;BME280;10471;42.736;23.346;2022-07-17T07:51:41;96106.94;;;25.59;48.92
20624;BME280;10471;42.736;23.346;2022-07-17T07:54:06;96102.78;;;25.77;48.36
20624;BME280;10471;42.736;23.346;2022-07-17T07:56:32;96105.19;;;25.82;50.24
20624;BME280;10471;42.736;23.346;2022-07-17T07:58:57;96108.63;;;25.79;46.51
20624;BME280;10471;42.736;23.346;2022-07-17T08:01:23;96114.69;;;25.91;47.20
20624;BME280;10471;42.736;23.346;2022-07-17T08:03:48;96113.47;;;25.89;45.25
20624;BME280;10471;42.736;23.346;2022-07-17T08:06:14;96110.63;;;26.01;46.86
20624;BME280;10471;42.736;23.346;2022-07-17T08:08:40;96113.88;;;25.91;46.61
20624;BME280;10471;42.736;23.346;2022-07-17T08:11:05;96117.31;;;26.07;46.93
20624;BME280;10471;42.736;23.346;2022-07-17T08:13:31;96113.63;;;26.15;46.95
20624;BME280;10471;42.736;23.346;2022-07-17T08:15:57;96115.13;;;26.12;46.00
20624;BME280;10471;42.736;23.346;2022-07-17T08:18:24;96113.06;;;26.25;45.26
20624;BME280;10471;42.736;23.346;2022-07-17T08:20:51;96109.34;;;26.33;45.60
20624;BME280;10471;42.736;23.346;2022-07-17T08:23:16;96117.38;;;26.45;46.13
20624;BME280;10471;42.736;23.346;2022-07-17T08:25:41;96110.91;;;26.49;45.61
20624;BME280;10471;42.736;23.346;2022-07-17T08:28:07;96107.53;;;26.55;44.88
20624;BME280;10471;42.736;23.346;2022-07-17T08:30:33;96115.34;;;26.60;45.29
20624;BME280;10471;42.736;23.346;2022-07-17T08:33:01;96106.53;;;26.45;45.12
20624;BME280;10471;42.736;23.346;2022-07-17T08:35:27;96111.72;;;26.34;44.53
20624;BME280;10471;42.736;23.346;2022-07-17T08:37:52;96108.19;;;26.49;45.55
20624;BME280;10471;42.736;23.346;2022-07-17T08:40:26;96105.97;;;26.54;44.75
20624;BME280;10471;42.736;23.346;2022-07-17T08:42:54;96106.09;;;26.61;43.67
20624;BME280;10471;42.736;23.346;2022-07-17T08:45:19;96103.94;;;26.70;44.95
20624;BME280;10471;42.736;23.346;2022-07-17T08:47:45;96104.94;;;26.81;44.88
20624;BME280;10471;42.736;23.346;2022-07-17T08:50:12;96105.63;;;26.78;44.09
20624;BME280;10471;42.736;23.346;2022-07-17T08:52:39;96105.75;;;26.85;44.24
20624;BME280;10471;42.736;23.346;2022-07-17T08:55:09;96101.19;;;26.89;44.38
20624;BME280;10471;42.736;23.346;2022-07-17T08:57:37;96098.94;;;27.14;41.08
20624;BME280;10471;42.736;23.346;2022-07-17T09:00:04;96097.25;;;27.28;40.39
20624;BME280;10471;42.736;23.346;2022-07-17T09:02:30;96088.53;;;27.16;38.40
20624;BME280;10471;42.736;23.346;2022-07-17T09:04:55;96087.44;;;27.20;39.31
20624;BME280;10471;42.736;23.346;2022-07-17T09:07:21;96088.88;;;27.36;40.34
20624;BME280;10471;42.736;23.346;2022-07-17T09:09:51;96086.97;;;27.63;41.07
20624;BME280;10471;42.736;23.346;2022-07-17T09:12:17;96094.44;;;27.69;38.12
20624;BME280;10471;42.736;23.346;2022-07-17T09:14:42;96091.06;;;27.76;38.97
20624;BME280;10471;42.736;23.346;2022-07-17T09:17:09;96089.44;;;27.71;38.87
20624;BME280;10471;42.736;23.346;2022-07-17T09:19:39;96094.84;;;27.71;37.13
20624;BME280;10471;42.736;23.346;2022-07-17T09:27:07;96098.34;;;27.72;38.21
20624;BME280;10471;42.736;23.346;2022-07-17T09:29:33;96094.81;;;27.68;38.00
20624;BME280;10471;42.736;23.346;2022-07-17T09:31:59;96089.38;;;27.68;39.02
20624;BME280;10471;42.736;23.346;2022-07-17T09:34:24;96095.63;;;27.72;37.03
20624;BME280;10471;42.736;23.346;2022-07-17T09:37:00;96094.00;;;27.93;38.42
20624;BME280;10471;42.736;23.346;2022-07-17T09:39:36;96088.84;;;27.84;38.44
20624;BME280;10471;42.736;23.346;2022-07-17T09:42:01;96088.09;;;27.87;38.96
20624;BME280;10471;42.736;23.346;2022-07-17T09:44:27;96093.78;;;28.05;38.17
20624;BME280;10471;42.736;23.346;2022-07-17T09:46:53;96092.47;;;28.21;38.26
20624;BME280;10471;42.736;23.346;2022-07-17T09:49:19;96087.88;;;28.25;38.13
20624;BME280;10471;42.736;23.346;2022-07-17T09:51:49;96096.16;;;28.39;38.52
20624;BME280;10471;42.736;23.346;2022-07-17T09:54:15;96095.69;;;28.30;36.28
20624;BME280;10471;42.736;23.346;2022-07-17T09:56:45;96091.97;;;28.45;37.74
20624;BME280;10471;42.736;23.346;2022-07-17T09:59:12;96080.84;;;28.53;37.44
20624;BME280;10471;42.736;23.346;2022-07-17T10:01:39;96095.88;;;28.48;38.58
20624;BME280;10471;42.736;23.346;2022-07-17T10:04:05;96098.25;;;28.49;37.49
20624;BME280;10471;42.736;23.346;2022-07-17T10:06:31;96092.97;;;28.63;37.16
20624;BME280;10471;42.736;23.346;2022-07-17T10:08:58;96088.25;;;28.60;37.67
20624;BME280;10471;42.736;23.346;2022-07-17T10:11:27;96086.00;;;28.65;38.12
20624;BME280;10471;42.736;23.346;2022-07-17T10:13:55;96094.53;;;28.64;38.95
20624;BME280;10471;42.736;23.346;2022-07-17T10:16:26;96078.94;;;28.57;36.36
20624;BME280;10471;42.736;23.346;2022-07-17T10:18:55;96083.88;;;28.81;38.10
20624;BME280;10471;42.736;23.346;2022-07-17T10:21:23;96087.09;;;28.94;37.89
20624;BME280;10471;42.736;23.346;2022-07-17T10:26:35;96073.72;;;29.15;37.06
20624;BME280;10471;42.736;23.346;2022-07-17T10:29:07;96070.38;;;29.31;37.29
20624;BME280;10471;42.736;23.346;2022-07-17T10:31:33;96076.25;;;29.37;37.23
20624;BME280;10471;42.736;23.346;2022-07-17T10:34:00;96075.91;;;29.42;37.52
20624;BME280;10471;42.736;23.346;2022-07-17T10:36:39;96082.97;;;29.53;36.64
20624;BME280;10471;42.736;23.346;2022-07-17T10:39:12;96070.66;;;29.19;35.49
20624;BME280;10471;42.736;23.346;2022-07-17T10:41:39;96079.78;;;29.37;37.01
20624;BME280;10471;42.736;23.346;2022-07-17T10:44:04;96063.16;;;29.53;36.81
20624;BME280;10471;42.736;23.346;2022-07-17T10:46:30;96065.19;;;29.66;35.69
20624;BME280;10471;42.736;23.346;2022-07-17T10:48:55;96060.13;;;29.61;35.34
20624;BME280;10471;42.736;23.346;2022-07-17T10:51:24;96068.44;;;29.86;38.03
20624;BME280;10471;42.736;23.346;2022-07-17T10:53:50;96060.06;;;30.15;35.74
20624;BME280;10471;42.736;23.346;2022-07-17T10:56:16;96051.19;;;30.35;37.81
20624;BME280;10471;42.736;23.346;2022-07-17T10:58:43;96053.63;;;30.57;36.71
20624;BME280;10471;42.736;23.346;2022-07-17T11:01:17;96054.06;;;30.77;35.69
20624;BME280;10471;42.736;23.346;2022-07-17T11:03:48;96052.38;;;30.38;36.20
20624;BME280;10471;42.736;23.346;2022-07-17T11:06:19;96056.97;;;30.20;36.03
20624;BME280;10471;42.736;23.346;2022-07-17T11:08:50;96046.84;;;30.17;34.65
20624;BME280;10471;42.736;23.346;2022-07-17T11:11:18;96040.38;;;30.53;36.47
20624;BME280;10471;42.736;23.346;2022-07-17T11:13:44;96044.75;;;30.85;34.35
20624;BME280;10471;42.736;23.346;2022-07-17T11:16:10;96040.09;;;31.27;35.14
20624;BME280;10471;42.736;23.346;2022-07-17T11:18:36;96032.31;;;31.32;35.03
20624;BME280;10471;42.736;23.346;2022-07-17T11:21:03;96036.94;;;31.77;35.06
20624;BME280;10471;42.736;23.346;2022-07-17T11:23:31;96031.09;;;31.86;33.39
20624;BME280;10471;42.736;23.346;2022-07-17T11:26:05;96032.19;;;31.98;33.77
20624;BME280;10471;42.736;23.346;2022-07-17T11:28:32;96026.59;;;32.40;34.80
20624;BME280;10471;42.736;23.346;2022-07-17T11:30:59;96027.75;;;32.53;32.37
20624;BME280;10471;42.736;23.346;2022-07-17T11:33:25;96030.97;;;32.27;34.00
20624;BME280;10471;42.736;23.346;2022-07-17T11:35:50;96036.09;;;32.11;35.09
20624;BME280;10471;42.736;23.346;2022-07-17T11:38:16;96025.44;;;32.34;34.10
20624;BME280;10471;42.736;23.346;2022-07-17T11:40:48;96021.94;;;32.37;32.77
20624;BME280;10471;42.736;23.346;2022-07-17T11:43:14;96026.63;;;32.33;34.15
20624;BME280;10471;42.736;23.346;2022-07-17T11:45:41;96022.69;;;32.45;31.92
20624;BME280;10471;42.736;23.346;2022-07-17T11:48:07;96022.81;;;32.13;34.34
20624;BME280;10471;42.736;23.346;2022-07-17T11:50:33;96019.78;;;31.80;35.07
20624;BME280;10471;42.736;23.346;2022-07-17T11:53:03;96024.91;;;31.50;34.91
20624;BME280;10471;42.736;23.346;2022-07-17T11:55:39;96019.38;;;31.82;35.56
20624;BME280;10471;42.736;23.346;2022-07-17T11:58:06;96002.59;;;31.93;34.85
20624;BME280;10471;42.736;23.346;2022-07-17T12:00:32;96008.75;;;32.18;33.94
20624;BME280;10471;42.736;23.346;2022-07-17T12:05:26;96003.59;;;32.34;32.17
20624;BME280;10471;42.736;23.346;2022-07-17T12:07:53;96007.38;;;32.64;33.36
20624;BME280;10471;42.736;23.346;2022-07-17T12:10:21;95998.56;;;32.94;33.48
20624;BME280;10471;42.736;23.346;2022-07-17T12:13:06;96004.91;;;33.31;32.40
20624;BME280;10471;42.736;23.346;2022-07-17T12:18:01;96004.00;;;32.36;33.06
20624;BME280;10471;42.736;23.346;2022-07-17T12:20:43;95999.56;;;31.71;34.89
20624;BME280;10471;42.736;23.346;2022-07-17T12:23:09;96001.91;;;31.48;34.39
20624;BME280;10471;42.736;23.346;2022-07-17T12:25:35;95999.22;;;31.20;35.81
20624;BME280;10471;42.736;23.346;2022-07-17T12:28:00;96003.91;;;31.02;36.53
20624;BME280;10471;42.736;23.346;2022-07-17T12:30:26;96002.31;;;30.77;34.40
20624;BME280;10471;42.736;23.346;2022-07-17T12:32:51;95997.25;;;30.82;36.37
20624;BME280;10471;42.736;23.346;2022-07-17T12:35:16;96002.69;;;30.89;36.13
20624;BME280;10471;42.736;23.346;2022-07-17T12:37:42;95992.56;;;30.79;36.24
20624;BME280;10471;42.736;23.346;2022-07-17T12:40:08;95999.16;;;30.47;36.60
20624;BME280;10471;42.736;23.346;2022-07-17T12:42:34;95998.75;;;30.45;36.97
20624;BME280;10471;42.736;23.346;2022-07-17T12:44:59;95996.34;;;30.37;38.18
20624;BME280;10471;42.736;23.346;2022-07-17T12:47:25;95999.38;;;30.04;36.83
20624;BME280;10471;42.736;23.346;2022-07-17T12:49:50;96000.13;;;29.94;37.79
20624;BME280;10471;42.736;23.346;2022-07-17T12:52:15;95994.19;;;29.85;37.86
20624;BME280;10471;42.736;23.346;2022-07-17T12:54:41;95994.25;;;29.88;37.41